Time;durP1;ratioP1;P1;durP2;ratioP2;P2;SDS_P1;SDS_P2;PMS_P1;PMS_P2;Temp;Humidity;BMP_temperature;BMP_pressure;BME280_temperature;BME280_humidity;BME280_pressure;Samples;Min_cycle;Max_cycle;Signal;HPM_P1;HPM_P2
2024/02/20 00:01:10;;;;;;;9.40;2.47;;;7.70;99.90;;;;;;5041030;28;20467;-35
2024/02/20 00:03:36;;;;;;;9.63;2.38;;;7.80;99.90;;;;;;5039790;28;20045;-37
2024/02/20 00:06:01;;;;;;;8.63;2.30;;;7.70;99.90;;;;;;5040839;28;20156;-37
2024/02/20 00:08:27;;;;;;;11.68;2.33;;;7.70;99.90;;;;;;5041154;28;20148;-38
2024/02/20 00:10:52;;;;;;;8.93;1.98;;;7.70;99.90;;;;;;5039999;28;20025;-35
2024/02/20 00:13:18;;;;;;;8.07;2.25;;;7.70;99.90;;;;;;5041066;28;20033;-34
2024/02/20 00:15:43;;;;;;;12.75;2.38;;;7.60;99.90;;;;;;5041240;28;20037;-33
2024/02/20 00:18:10;;;;;;;8.27;1.92;;;7.70;99.90;;;;;;5040191;28;20024;-38
2024/02/20 00:20:35;;;;;;;8.82;2.15;;;7.60;99.90;;;;;;5040939;28;20033;-35
2024/02/20 00:23:01;;;;;;;6.90;1.70;;;7.70;99.90;;;;;;5040487;28;20040;-38
2024/02/20 00:25:27;;;;;;;7.13;2.28;;;7.60;99.90;;;;;;5039968;28;20056;-37
2024/02/20 00:27:52;;;;;;;12.88;2.75;;;7.60;99.90;;;;;;5040284;28;20438;-36
2024/02/20 00:30:18;;;;;;;8.23;2.22;;;7.60;99.90;;;;;;5039639;28;20031;-37
2024/02/20 00:32:43;;;;;;;8.20;2.90;;;7.60;99.90;;;;;;5040630;28;20072;-36
2024/02/20 00:35:09;;;;;;;6.13;1.92;;;7.60;99.90;;;;;;5040569;28;20037;-38
2024/02/20 00:37:35;;;;;;;7.68;1.95;;;7.60;99.90;;;;;;5039819;28;20163;-39
2024/02/20 00:40:00;;;;;;;10.80;1.85;;;7.60;99.90;;;;;;5040065;28;20203;-38
2024/02/20 00:42:26;;;;;;;7.30;1.88;;;7.50;99.90;;;;;;5040137;28;20037;-35
2024/02/20 00:44:51;;;;;;;8.60;1.70;;;7.50;99.90;;;;;;5039474;28;20119;-37
2024/02/20 00:47:17;;;;;;;7.60;2.38;;;7.50;99.90;;;;;;5040729;28;20033;-38
2024/02/20 00:49:42;;;;;;;6.93;1.83;;;7.50;99.90;;;;;;5040459;28;20119;-36
2024/02/20 00:52:08;;;;;;;5.85;1.88;;;7.50;99.90;;;;;;5039797;28;20041;-37
2024/02/20 00:54:33;;;;;;;7.13;2.10;;;7.50;99.90;;;;;;5040224;28;20079;-36
2024/02/20 00:56:59;;;;;;;12.63;2.67;;;7.40;99.90;;;;;;5040037;28;20482;-36
2024/02/20 00:59:26;;;;;;;10.43;2.08;;;7.40;99.90;;;;;;5039704;28;20055;-33
2024/02/20 01:01:52;;;;;;;13.50;2.63;;;7.40;99.90;;;;;;5040542;28;20028;-37
2024/02/20 01:04:17;;;;;;;8.85;2.00;;;7.40;99.90;;;;;;5039810;28;20537;-35
2024/02/20 01:06:43;;;;;;;9.55;2.33;;;7.40;99.90;;;;;;5038684;28;20016;-36
2024/02/20 01:09:09;;;;;;;11.20;2.50;;;7.40;99.90;;;;;;5039642;28;20159;-36
2024/02/20 01:11:34;;;;;;;11.40;2.42;;;7.40;99.90;;;;;;5039186;28;20111;-36
2024/02/20 01:14:00;;;;;;;11.88;3.45;;;7.40;99.90;;;;;;5039844;28;20033;-36
2024/02/20 01:16:28;;;;;;;9.27;2.10;;;7.40;99.90;;;;;;5039735;28;20195;-35
2024/02/20 01:18:53;;;;;;;8.82;2.33;;;7.40;99.90;;;;;;5039862;28;20021;-34
2024/02/20 01:21:19;;;;;;;8.45;1.88;;;7.40;99.90;;;;;;5039353;28;20021;-35
2024/02/20 01:23:44;;;;;;;9.20;2.00;;;7.40;99.90;;;;;;5039742;28;20082;-37
2024/02/20 01:26:10;;;;;;;8.63;2.25;;;7.40;99.90;;;;;;5039374;28;20025;-35
2024/02/20 01:28:35;;;;;;;7.05;2.25;;;7.40;99.90;;;;;;5038973;28;20078;-36
2024/02/20 01:31:01;;;;;;;10.27;2.25;;;7.40;99.90;;;;;;5039360;28;20372;-36
2024/02/20 01:33:27;;;;;;;9.93;2.47;;;7.40;99.90;;;;;;5039372;28;20029;-35
2024/02/20 01:35:52;;;;;;;7.88;1.70;;;7.40;99.90;;;;;;5039085;28;20024;-37
2024/02/20 01:38:18;;;;;;;10.77;2.10;;;7.40;99.90;;;;;;5039172;28;20472;-37
2024/02/20 01:40:43;;;;;;;8.07;2.00;;;7.40;99.90;;;;;;5039130;28;20426;-35
2024/02/20 01:43:09;;;;;;;7.88;1.85;;;7.40;99.90;;;;;;5039304;28;20450;-35
2024/02/20 01:45:35;;;;;;;7.38;2.20;;;7.40;99.90;;;;;;5039335;28;20044;-36
2024/02/20 01:48:02;;;;;;;6.05;1.70;;;7.40;99.90;;;;;;5038362;28;20040;-37
2024/02/20 01:50:31;;;;;;;9.15;2.13;;;7.40;99.90;;;;;;5039884;28;20474;-38
2024/02/20 01:52:57;;;;;;;8.15;1.77;;;7.40;99.90;;;;;;5038938;28;20021;-35
2024/02/20 01:55:23;;;;;;;8.73;2.00;;;7.40;99.90;;;;;;5039187;28;20025;-38
2024/02/20 01:57:48;;;;;;;7.50;1.95;;;7.40;99.90;;;;;;5039606;28;20033;-35
2024/02/20 02:00:14;;;;;;;6.32;1.77;;;7.40;99.90;;;;;;5039435;28;20025;-33
2024/02/20 02:02:41;;;;;;;11.50;2.95;;;7.40;99.90;;;;;;5038386;28;20475;-37
2024/02/20 02:05:07;;;;;;;9.40;2.67;;;7.40;99.90;;;;;;5039620;28;20049;-36
2024/02/20 02:07:33;;;;;;;10.68;2.35;;;7.40;99.90;;;;;;5038693;28;20132;-38
2024/02/20 02:09:58;;;;;;;7.57;1.92;;;7.30;99.90;;;;;;5039162;28;20053;-36
2024/02/20 02:12:24;;;;;;;10.32;2.50;;;7.30;99.90;;;;;;5038893;28;20103;-36
2024/02/20 02:14:49;;;;;;;8.40;2.50;;;7.30;99.90;;;;;;5039455;28;20104;-38
2024/02/20 02:17:15;;;;;;;9.75;2.20;;;7.40;99.90;;;;;;5038369;28;20051;-38
2024/02/20 02:19:41;;;;;;;8.27;2.28;;;7.30;99.90;;;;;;5039404;28;20139;-34
2024/02/20 02:22:07;;;;;;;9.93;2.30;;;7.30;99.90;;;;;;5039347;28;20025;-34
2024/02/20 02:24:36;;;;;;;10.52;2.45;;;7.30;99.90;;;;;;5038377;28;20029;-37
2024/02/20 02:27:03;;;;;;;10.45;2.85;;;7.30;99.90;;;;;;5039067;28;20111;-34
2024/02/20 02:29:29;;;;;;;10.75;2.00;;;7.30;99.90;;;;;;5038932;28;20111;-36
2024/02/20 02:31:58;;;;;;;11.65;2.78;;;7.30;99.90;;;;;;5038296;28;20081;-37
2024/02/20 02:34:29;;;;;;;8.98;2.35;;;7.30;99.90;;;;;;5037520;28;20084;-37
2024/02/20 02:36:56;;;;;;;7.70;2.10;;;7.30;99.90;;;;;;5038669;28;20036;-36
2024/02/20 02:39:23;;;;;;;7.22;2.20;;;7.40;99.90;;;;;;5039154;28;20057;-36
2024/02/20 02:41:52;;;;;;;11.30;2.25;;;7.30;99.90;;;;;;5039807;28;20100;-37
2024/02/20 02:44:19;;;;;;;5.65;1.75;;;7.40;99.90;;;;;;5038229;28;20448;-38
2024/02/20 02:46:44;;;;;;;6.47;2.10;;;7.40;99.90;;;;;;5039404;28;20025;-36
2024/02/20 02:49:10;;;;;;;10.73;1.98;;;7.40;99.90;;;;;;5038205;28;20384;-37
2024/02/20 02:51:36;;;;;;;11.75;2.30;;;7.40;99.90;;;;;;5038348;28;20031;-37
2024/02/20 02:54:02;;;;;;;7.32;2.03;;;7.40;99.90;;;;;;5038794;28;20165;-35
2024/02/20 02:56:30;;;;;;;7.88;1.98;;;7.40;99.90;;;;;;5042073;28;20025;-34
2024/02/20 02:58:56;;;;;;;6.07;1.92;;;7.40;99.90;;;;;;5042084;28;20471;-35
2024/02/20 03:01:22;;;;;;;7.22;2.10;;;7.40;99.90;;;;;;5042399;28;20025;-35
2024/02/20 03:03:48;;;;;;;5.80;1.48;;;7.40;99.90;;;;;;5042581;28;20142;-34
2024/02/20 03:06:14;;;;;;;5.28;1.85;;;7.40;99.90;;;;;;5041691;28;20832;-34
2024/02/20 03:08:44;;;;;;;8.85;2.67;;;7.40;99.90;;;;;;5041558;28;20179;-35
2024/02/20 03:11:14;;;;;;;9.70;1.92;;;7.40;99.90;;;;;;5042246;28;20079;-33
2024/02/20 03:13:40;;;;;;;7.82;2.22;;;7.40;99.90;;;;;;5042197;28;20063;-36
2024/02/20 03:16:06;;;;;;;7.35;2.00;;;7.40;99.90;;;;;;5042563;28;20144;-38
2024/02/20 03:18:36;;;;;;;5.97;1.75;;;7.40;99.90;;;;;;5042162;28;20254;-37
2024/02/20 03:21:01;;;;;;;8.32;1.85;;;7.40;99.90;;;;;;5041501;28;20061;-37
2024/02/20 03:23:31;;;;;;;6.03;1.67;;;7.30;99.90;;;;;;5042172;28;20218;-36
2024/02/20 03:25:57;;;;;;;8.77;1.98;;;7.40;99.90;;;;;;5041246;28;20447;-37
2024/02/20 03:28:23;;;;;;;7.40;2.10;;;7.40;99.90;;;;;;5041614;28;20146;-36
2024/02/20 03:30:49;;;;;;;6.25;2.00;;;7.40;99.90;;;;;;5041951;28;20096;-38
2024/02/20 03:33:17;;;;;;;6.18;1.60;;;7.40;99.90;;;;;;5041334;28;20059;-35
2024/02/20 03:35:43;;;;;;;4.97;2.08;;;7.40;99.90;;;;;;5042139;28;20021;-36
2024/02/20 03:38:09;;;;;;;7.18;1.95;;;7.40;99.90;;;;;;5041430;28;20029;-34
2024/02/20 03:40:35;;;;;;;7.20;1.75;;;7.40;99.90;;;;;;5040803;28;20017;-35
2024/02/20 03:43:02;;;;;;;8.65;1.90;;;7.40;99.90;;;;;;5041598;28;20068;-35
2024/02/20 03:45:28;;;;;;;6.72;1.67;;;7.40;99.90;;;;;;5040685;28;20021;-36
2024/02/20 03:47:54;;;;;;;7.57;1.80;;;7.40;99.90;;;;;;5041238;28;20063;-36
2024/02/20 03:50:20;;;;;;;8.27;2.13;;;7.40;99.90;;;;;;5041936;28;20028;-34
2024/02/20 03:52:46;;;;;;;7.50;1.95;;;7.40;99.90;;;;;;5041833;28;20021;-33
2024/02/20 03:55:12;;;;;;;7.15;2.05;;;7.30;99.90;;;;;;5040251;28;20387;-34
2024/02/20 03:57:37;;;;;;;8.15;2.22;;;7.40;99.90;;;;;;5041639;28;20028;-35
2024/02/20 04:00:11;;;;;;;6.03;2.38;;;7.30;99.90;;;;;;5041316;28;20036;-34
2024/02/20 04:02:40;;;;;;;8.25;2.03;;;7.30;99.90;;;;;;5040541;28;20065;-36
2024/02/20 04:05:07;;;;;;;8.23;2.00;;;7.30;99.90;;;;;;5041687;28;20209;-35
2024/02/20 04:07:32;;;;;;;5.35;1.92;;;7.30;99.90;;;;;;5040141;28;20025;-36
2024/02/20 04:09:58;;;;;;;4.47;1.55;;;7.30;99.90;;;;;;5040469;28;20056;-36
2024/02/20 04:12:23;;;;;;;10.55;1.98;;;7.30;99.90;;;;;;5039561;28;20104;-35
2024/02/20 04:14:49;;;;;;;7.35;2.50;;;7.30;99.90;;;;;;5040506;28;20118;-33
2024/02/20 04:17:14;;;;;;;6.35;1.95;;;7.30;99.90;;;;;;5039744;28;20605;-36
2024/02/20 04:19:40;;;;;;;9.75;2.72;;;7.30;99.90;;;;;;5041443;28;20098;-34
2024/02/20 04:22:06;;;;;;;8.82;2.33;;;7.30;99.90;;;;;;5040555;28;20033;-34
2024/02/20 04:24:31;;;;;;;9.10;2.40;;;7.20;99.90;;;;;;5040480;28;20024;-36
2024/02/20 04:26:57;;;;;;;6.15;2.30;;;7.20;99.90;;;;;;5041414;28;20951;-35
2024/02/20 04:29:22;;;;;;;6.10;2.17;;;7.20;99.90;;;;;;5040911;28;20029;-37
2024/02/20 04:31:48;;;;;;;8.98;2.80;;;7.20;99.90;;;;;;5040056;28;20020;-36
2024/02/20 04:34:13;;;;;;;8.13;2.45;;;7.20;99.90;;;;;;5040542;28;20043;-36
2024/02/20 04:36:39;;;;;;;10.07;2.50;;;7.20;99.90;;;;;;5039740;28;20522;-33
2024/02/20 04:39:04;;;;;;;7.10;2.65;;;7.20;99.90;;;;;;5040443;28;20839;-37
2024/02/20 04:41:31;;;;;;;9.32;3.00;;;7.20;99.90;;;;;;5040276;28;20029;-34
2024/02/20 04:43:56;;;;;;;6.45;2.60;;;7.20;99.90;;;;;;5039164;28;20611;-37
2024/02/20 04:46:22;;;;;;;6.18;2.55;;;7.20;99.90;;;;;;5040961;28;20108;-37
2024/02/20 04:48:47;;;;;;;8.52;3.45;;;7.20;99.90;;;;;;5040482;28;20028;-35
2024/02/20 04:51:13;;;;;;;9.10;2.78;;;7.20;99.90;;;;;;5039847;28;20112;-37
2024/02/20 04:53:39;;;;;;;7.57;2.65;;;7.20;99.90;;;;;;5040185;28;20029;-36
2024/02/20 04:56:05;;;;;;;6.60;2.90;;;7.20;99.90;;;;;;5040870;28;20044;-35
2024/02/20 04:58:30;;;;;;;8.45;2.70;;;7.20;99.90;;;;;;5039135;28;20033;-38
2024/02/20 05:00:56;;;;;;;7.20;2.80;;;7.20;99.90;;;;;;5039937;28;20064;-36
2024/02/20 05:03:21;;;;;;;7.93;2.63;;;7.20;99.90;;;;;;5039567;28;20771;-38
2024/02/20 05:05:47;;;;;;;4.53;2.60;;;7.30;99.90;;;;;;5039586;28;20021;-37
2024/02/20 05:08:12;;;;;;;9.10;3.80;;;7.20;99.90;;;;;;5039947;28;20064;-37
2024/02/20 05:10:38;;;;;;;7.97;2.80;;;7.30;99.90;;;;;;5039435;28;20032;-38
2024/02/20 05:13:04;;;;;;;6.05;2.92;;;7.30;99.90;;;;;;5038966;28;20064;-37
2024/02/20 05:15:29;;;;;;;8.18;3.13;;;7.30;99.90;;;;;;5039633;28;20430;-36
2024/02/20 05:17:55;;;;;;;9.50;2.92;;;7.30;99.90;;;;;;5039748;28;20386;-36
2024/02/20 05:20:22;;;;;;;6.05;2.70;;;7.30;99.90;;;;;;5039154;28;20024;-35
2024/02/20 05:22:48;;;;;;;7.18;2.55;;;7.30;99.90;;;;;;5039276;28;20060;-36
2024/02/20 05:25:14;;;;;;;8.00;3.08;;;7.30;99.90;;;;;;5038972;28;20032;-34
2024/02/20 05:27:39;;;;;;;7.57;2.47;;;7.20;99.90;;;;;;5039507;28;20423;-34
2024/02/20 05:30:06;;;;;;;9.02;2.90;;;7.20;99.90;;;;;;5039372;28;20025;-34
2024/02/20 05:32:31;;;;;;;7.70;2.67;;;7.20;99.90;;;;;;5039243;28;20037;-37
2024/02/20 05:34:57;;;;;;;8.02;3.17;;;7.20;99.90;;;;;;5038294;28;20079;-38
2024/02/20 05:37:23;;;;;;;5.60;2.80;;;7.20;99.90;;;;;;5039543;28;20082;-36
2024/02/20 05:39:48;;;;;;;9.88;3.38;;;7.20;99.90;;;;;;5038883;28;20114;-39
2024/02/20 05:42:14;;;;;;;9.32;3.25;;;7.20;99.90;;;;;;5039166;28;20037;-35
2024/02/20 05:44:40;;;;;;;9.73;2.70;;;7.20;99.90;;;;;;5039035;28;20869;-35
2024/02/20 05:47:05;;;;;;;9.98;3.58;;;7.20;99.90;;;;;;5038303;28;20021;-35
2024/02/20 05:49:32;;;;;;;4.65;2.22;;;7.20;99.90;;;;;;5039223;28;20025;-34
2024/02/20 05:51:58;;;;;;;5.80;2.53;;;7.20;99.90;;;;;;5039385;28;20135;-37
2024/02/20 05:54:24;;;;;;;6.63;2.30;;;7.30;99.90;;;;;;5038367;28;20500;-35
2024/02/20 05:56:49;;;;;;;6.45;2.40;;;7.20;99.90;;;;;;5039604;28;20090;-35
2024/02/20 05:59:15;;;;;;;5.85;2.58;;;7.20;99.90;;;;;;5038815;28;20127;-38
2024/02/20 06:01:41;;;;;;;7.93;2.55;;;7.20;99.90;;;;;;5038459;28;20062;-36
2024/02/20 06:04:06;;;;;;;7.85;2.10;;;7.20;99.90;;;;;;5039762;28;20448;-36
2024/02/20 06:06:34;;;;;;;7.65;3.00;;;7.20;99.90;;;;;;5039177;28;20075;-41
2024/02/20 06:09:00;;;;;;;7.20;2.50;;;7.30;99.90;;;;;;5038814;28;20044;-34
2024/02/20 06:11:27;;;;;;;5.80;2.55;;;7.30;99.90;;;;;;5038942;28;20127;-38
2024/02/20 06:13:53;;;;;;;8.95;2.70;;;7.30;99.90;;;;;;5039223;28;20029;-35
2024/02/20 06:16:21;;;;;;;8.35;2.72;;;7.30;99.90;;;;;;5038643;28;20025;-34
2024/02/20 06:18:47;;;;;;;7.53;2.58;;;7.30;99.90;;;;;;5019166;28;20025;-35
2024/02/20 06:21:12;;;;;;;8.50;3.08;;;7.30;99.90;;;;;;5033010;28;20747;-35
2024/02/20 06:23:44;;;;;;;5.47;2.40;;;7.30;99.90;;;;;;5038557;28;20041;-31
2024/02/20 06:26:09;;;;;;;5.97;2.63;;;7.30;99.90;;;;;;5039517;28;20434;-36
2024/02/20 06:28:35;;;;;;;5.13;2.33;;;7.30;99.90;;;;;;5039367;28;20036;-37
2024/02/20 06:31:03;;;;;;;5.40;2.15;;;7.20;99.90;;;;;;5041623;28;20090;-36
2024/02/20 06:33:30;;;;;;;7.15;2.00;;;7.30;99.90;;;;;;5042974;28;20032;-35
2024/02/20 06:35:56;;;;;;;7.22;2.30;;;7.20;99.90;;;;;;5043052;28;20020;-36
2024/02/20 06:38:22;;;;;;;6.40;2.70;;;7.20;99.90;;;;;;5041683;28;20036;-37
2024/02/20 06:40:47;;;;;;;11.05;3.00;;;7.20;99.90;;;;;;5043005;28;20021;-36
2024/02/20 06:43:13;;;;;;;4.93;2.15;;;7.20;99.90;;;;;;5042477;28;20075;-37
2024/02/20 06:45:39;;;;;;;9.50;2.47;;;7.20;99.90;;;;;;5042690;28;20056;-37
2024/02/20 06:48:05;;;;;;;9.82;3.00;;;7.20;99.90;;;;;;5042236;28;20068;-36
2024/02/20 06:50:31;;;;;;;7.68;2.55;;;7.20;99.90;;;;;;5042445;28;20033;-36
2024/02/20 06:52:57;;;;;;;5.05;2.70;;;7.20;99.90;;;;;;5042431;28;20025;-36
2024/02/20 06:55:22;;;;;;;6.90;2.70;;;7.20;99.90;;;;;;5041034;28;20032;-36
2024/02/20 06:57:48;;;;;;;7.47;2.60;;;7.20;99.90;;;;;;5040416;28;20021;-37
2024/02/20 07:00:14;;;;;;;8.20;2.70;;;7.20;99.90;;;;;;5041382;28;20032;-33
2024/02/20 07:02:42;;;;;;;8.60;2.53;;;7.20;99.90;;;;;;5041241;28;20041;-35
2024/02/20 07:05:10;;;;;;;9.80;3.05;;;7.20;99.90;;;;;;5040456;28;20043;-36
2024/02/20 07:07:36;;;;;;;7.72;2.63;;;7.20;99.90;;;;;;5040182;28;20112;-34
2024/02/20 07:10:03;;;;;;;7.40;2.55;;;7.20;99.90;;;;;;5040502;28;20027;-34
2024/02/20 07:12:29;;;;;;;5.43;2.53;;;7.20;99.90;;;;;;5039113;28;20049;-35
2024/02/20 07:14:54;;;;;;;7.05;2.83;;;7.20;99.90;;;;;;5039659;28;20078;-36
2024/02/20 07:17:21;;;;;;;4.55;2.40;;;7.20;99.90;;;;;;5039216;28;20029;-38
2024/02/20 07:19:47;;;;;;;5.95;2.60;;;7.20;99.90;;;;;;5040215;28;20029;-36
2024/02/20 07:22:12;;;;;;;5.18;2.45;;;7.20;99.90;;;;;;5040048;28;20028;-37
2024/02/20 07:24:38;;;;;;;7.38;2.47;;;7.20;99.90;;;;;;5040730;28;20056;-33
2024/02/20 07:27:03;;;;;;;7.05;2.53;;;7.20;99.90;;;;;;5040032;28;20029;-34
2024/02/20 07:29:29;;;;;;;7.72;2.63;;;7.20;99.90;;;;;;5040590;28;20195;-34
2024/02/20 07:31:55;;;;;;;6.93;2.78;;;7.20;99.90;;;;;;5040774;28;20072;-35
2024/02/20 07:34:20;;;;;;;5.50;2.67;;;7.20;99.90;;;;;;5040349;28;20116;-36
2024/02/20 07:36:48;;;;;;;6.85;2.65;;;7.30;99.90;;;;;;5040435;28;20046;-37
2024/02/20 07:39:14;;;;;;;6.38;3.03;;;7.30;99.90;;;;;;5040615;28;20563;-36
2024/02/20 07:41:40;;;;;;;7.80;2.63;;;7.30;99.90;;;;;;5040339;28;20028;-38
2024/02/20 07:44:06;;;;;;;6.07;2.70;;;7.40;99.90;;;;;;5040373;28;20039;-35
2024/02/20 07:46:32;;;;;;;8.07;2.53;;;7.40;99.90;;;;;;5040162;28;20048;-35
2024/02/20 07:48:59;;;;;;;7.25;2.83;;;7.40;99.90;;;;;;5040869;28;20048;-34
2024/02/20 07:51:24;;;;;;;7.70;2.70;;;7.40;99.90;;;;;;5040753;28;20075;-37
2024/02/20 07:53:50;;;;;;;7.97;2.53;;;7.50;99.90;;;;;;5040623;28;20021;-36
2024/02/20 07:56:26;;;;;;;5.60;2.15;;;7.60;99.90;;;;;;5040749;28;20029;-35
2024/02/20 07:58:52;;;;;;;7.13;2.45;;;7.60;99.90;;;;;;5040482;28;20017;-35
2024/02/20 08:01:21;;;;;;;5.88;2.75;;;7.60;99.90;;;;;;5040140;28;20040;-35
2024/02/20 08:03:52;;;;;;;5.63;2.47;;;7.70;99.90;;;;;;5041647;28;20032;-37
2024/02/20 08:06:21;;;;;;;5.38;2.45;;;7.70;99.90;;;;;;5041662;28;20031;-35
2024/02/20 08:08:47;;;;;;;4.00;2.50;;;7.80;99.90;;;;;;5040963;28;20376;-38
2024/02/20 08:11:13;;;;;;;5.30;2.30;;;7.80;99.90;;;;;;5038994;28;20037;-37
2024/02/20 08:13:44;;;;;;;6.20;2.47;;;7.90;99.90;;;;;;5039285;28;20055;-36
2024/02/20 08:16:13;;;;;;;4.95;2.30;;;7.80;99.90;;;;;;5039541;28;20404;-36
2024/02/20 08:18:42;;;;;;;7.68;3.28;;;7.90;99.90;;;;;;5022487;28;20032;-36
2024/02/20 08:21:10;;;;;;;6.40;2.55;;;8.00;99.90;;;;;;5037107;28;20067;-38
2024/02/20 08:23:39;;;;;;;6.95;2.85;;;8.00;99.90;;;;;;5040306;28;20048;-34
2024/02/20 08:26:05;;;;;;;7.78;2.92;;;8.00;99.90;;;;;;5040597;28;20021;-37
2024/02/20 08:28:31;;;;;;;9.30;3.72;;;8.10;99.90;;;;;;5040802;28;20033;-36
2024/02/20 08:30:59;;;;;;;6.28;2.55;;;8.10;99.90;;;;;;5039865;28;20103;-35
2024/02/20 08:33:24;;;;;;;4.80;2.67;;;8.20;99.90;;;;;;5040460;28;20025;-37
2024/02/20 08:35:52;;;;;;;7.22;2.63;;;8.20;99.90;;;;;;5039470;28;20036;-34
2024/02/20 08:38:17;;;;;;;6.32;2.88;;;8.20;99.90;;;;;;5039936;28;20479;-37
2024/02/20 08:40:43;;;;;;;4.82;2.85;;;8.20;99.90;;;;;;5040973;28;20107;-37
2024/02/20 08:43:10;;;;;;;6.90;2.95;;;8.30;99.90;;;;;;5039392;28;20037;-35
2024/02/20 08:45:35;;;;;;;6.35;3.15;;;8.40;99.90;;;;;;5040132;28;20470;-36
2024/02/20 08:48:01;;;;;;;7.70;2.95;;;8.40;99.90;;;;;;5039600;28;20106;-35
2024/02/20 08:50:27;;;;;;;6.93;2.90;;;8.40;99.90;;;;;;5038600;28;20071;-36
2024/02/20 08:52:53;;;;;;;5.70;2.70;;;8.40;99.90;;;;;;5038916;28;20546;-35
2024/02/20 08:55:19;;;;;;;6.30;3.10;;;8.40;99.90;;;;;;5039497;28;20028;-38
2024/02/20 08:57:44;;;;;;;7.63;2.67;;;8.40;99.90;;;;;;5040356;28;20166;-35
2024/02/20 09:00:11;;;;;;;7.60;2.60;;;8.40;99.90;;;;;;5040012;28;20040;-36
2024/02/20 09:02:41;;;;;;;7.95;2.67;;;8.50;99.90;;;;;;5040059;28;20605;-36
2024/02/20 09:05:11;;;;;;;5.60;2.55;;;8.50;99.90;;;;;;5039435;28;20025;-33
2024/02/20 09:07:37;;;;;;;8.77;3.00;;;8.50;99.90;;;;;;5039693;28;20025;-37
2024/02/20 09:10:14;;;;;;;9.07;3.88;;;8.50;99.90;;;;;;5039662;28;20408;-37
2024/02/20 09:12:40;;;;;;;9.95;3.45;;;8.60;99.90;;;;;;5039330;28;20045;-36
2024/02/20 09:15:09;;;;;;;9.05;3.22;;;8.70;99.90;;;;;;5039500;28;20021;-35
2024/02/20 09:17:34;;;;;;;11.55;2.92;;;8.70;99.90;;;;;;5038624;28;20763;-35
2024/02/20 09:20:00;;;;;;;8.57;2.85;;;8.70;99.90;;;;;;5039112;28;20021;-37
2024/02/20 09:22:26;;;;;;;6.82;2.92;;;8.80;99.90;;;;;;5039318;28;20025;-33
2024/02/20 09:24:52;;;;;;;10.25;4.28;;;8.90;99.90;;;;;;5038819;28;20140;-35
2024/02/20 09:27:18;;;;;;;7.50;3.15;;;8.90;99.90;;;;;;5039330;28;20422;-36
2024/02/20 09:29:44;;;;;;;9.75;3.67;;;9.00;99.90;;;;;;5038770;28;20032;-37
2024/02/20 09:32:09;;;;;;;7.40;2.78;;;9.00;99.90;;;;;;5038456;28;20017;-35
2024/02/20 09:34:35;;;;;;;7.72;3.20;;;9.00;99.90;;;;;;5039416;28;20025;-35
2024/02/20 09:37:01;;;;;;;7.53;2.75;;;9.10;99.90;;;;;;5039367;28;20736;-34
2024/02/20 09:39:26;;;;;;;8.07;3.00;;;9.10;99.90;;;;;;5038600;28;20686;-36
2024/02/20 09:41:53;;;;;;;8.32;3.03;;;9.10;99.90;;;;;;5039199;28;20013;-33
2024/02/20 09:44:26;;;;;;;7.47;2.95;;;9.20;99.90;;;;;;5038851;28;20369;-36
2024/02/20 09:46:57;;;;;;;8.75;2.72;;;9.20;99.90;;;;;;5037119;28;20464;-35
2024/02/20 09:49:23;;;;;;;7.40;2.60;;;9.30;99.90;;;;;;5039256;28;20032;-36
2024/02/20 09:51:49;;;;;;;6.68;3.30;;;9.30;99.90;;;;;;5039218;28;20067;-36
2024/02/20 09:54:16;;;;;;;8.90;3.03;;;9.30;99.90;;;;;;5034431;28;20025;-38
2024/02/20 09:56:43;;;;;;;9.50;3.17;;;9.40;99.90;;;;;;5039570;28;20067;-37
2024/02/20 09:59:09;;;;;;;12.30;3.28;;;9.50;99.90;;;;;;5038671;28;20025;-35
2024/02/20 10:01:35;;;;;;;10.23;3.40;;;9.50;99.90;;;;;;5037471;28;20064;-33
2024/02/20 10:04:07;;;;;;;8.60;3.47;;;9.60;99.90;;;;;;5037774;28;20563;-34
2024/02/20 10:06:33;;;;;;;8.48;3.28;;;9.60;99.90;;;;;;5041366;28;20813;-36
2024/02/20 10:08:58;;;;;;;8.10;3.30;;;9.70;99.90;;;;;;5041007;28;20031;-39
2024/02/20 10:11:24;;;;;;;9.25;3.50;;;9.70;99.90;;;;;;5041896;28;20045;-37
2024/02/20 10:13:51;;;;;;;9.32;3.20;;;9.80;99.90;;;;;;5041591;28;20036;-37
2024/02/20 10:16:21;;;;;;;9.43;3.65;;;9.80;99.90;;;;;;5042352;28;20225;-36
2024/02/20 10:18:57;;;;;;;8.32;3.13;;;9.90;99.90;;;;;;5042385;28;20017;-38
2024/02/20 10:21:22;;;;;;;9.77;3.10;;;9.90;99.90;;;;;;5041918;28;20407;-37
2024/02/20 10:23:58;;;;;;;7.05;3.00;;;9.90;99.90;;;;;;5043496;28;20041;-36
2024/02/20 10:26:24;;;;;;;8.27;3.22;;;10.00;99.90;;;;;;5043280;28;20063;-37
2024/02/20 10:28:49;;;;;;;9.20;3.22;;;10.00;99.90;;;;;;5041978;28;20107;-38
2024/02/20 10:31:15;;;;;;;8.48;3.63;;;10.00;99.90;;;;;;5042788;28;20037;-38
2024/02/20 10:33:50;;;;;;;9.10;3.58;;;10.00;99.90;;;;;;5042958;28;20059;-36
2024/02/20 10:36:21;;;;;;;10.02;3.47;;;10.10;99.90;;;;;;5042173;28;20087;-37
2024/02/20 10:38:47;;;;;;;11.38;3.63;;;10.10;99.90;;;;;;5042415;28;20025;-38
2024/02/20 10:41:15;;;;;;;8.30;3.92;;;10.10;99.90;;;;;;5031852;28;20025;-37
2024/02/20 10:43:45;;;;;;;7.82;3.50;;;10.20;99.90;;;;;;5042155;28;20033;-38
2024/02/20 10:46:12;;;;;;;10.82;4.03;;;10.20;99.90;;;;;;5041993;28;20029;-37
2024/02/20 10:48:39;;;;;;;14.02;4.95;;;10.20;99.90;;;;;;5042381;28;20063;-38
2024/02/20 10:51:06;;;;;;;11.10;4.07;;;10.30;99.90;;;;;;5041905;28;20025;-39
2024/02/20 10:53:36;;;;;;;8.70;3.83;;;10.30;99.90;;;;;;5042346;28;20064;-33
2024/02/20 10:56:04;;;;;;;9.40;4.88;;;10.30;99.90;;;;;;5042380;28;20021;-34
2024/02/20 10:58:39;;;;;;;10.20;3.97;;;10.40;99.90;;;;;;5042584;28;20124;-36
2024/02/20 11:01:10;;;;;;;9.85;3.72;;;10.40;99.90;;;;;;5042026;28;20044;-37
2024/02/20 11:03:38;;;;;;;8.23;4.00;;;10.40;99.90;;;;;;5041606;28;20044;-36
2024/02/20 11:06:04;;;;;;;11.90;4.13;;;10.40;99.90;;;;;;5041448;28;20060;-34
2024/02/20 11:08:31;;;;;;;13.02;4.20;;;10.40;99.90;;;;;;5041150;28;20073;-35
2024/02/20 11:11:08;;;;;;;13.02;4.55;;;10.40;99.90;;;;;;5040720;28;20501;-37
2024/02/20 11:13:33;;;;;;;9.00;4.28;;;10.50;99.90;;;;;;5042275;28;20143;-36
2024/02/20 11:16:11;;;;;;;11.85;4.35;;;10.50;99.90;;;;;;5041012;28;20102;-37
2024/02/20 11:18:38;;;;;;;6.25;3.15;;;10.50;99.90;;;;;;5041243;28;20053;-38
2024/02/20 11:21:07;;;;;;;8.75;3.80;;;10.60;99.90;;;;;;5041938;28;20771;-34
2024/02/20 11:23:35;;;;;;;9.57;3.70;;;10.60;99.90;;;;;;5041850;28;20075;-37
2024/02/20 11:26:08;;;;;;;8.02;3.75;;;10.60;99.90;;;;;;5041299;28;20025;-38
2024/02/20 11:28:37;;;;;;;11.65;4.72;;;10.70;99.90;;;;;;5041433;28;20043;-32
2024/02/20 11:31:04;;;;;;;9.50;4.03;;;10.70;99.90;;;;;;5041206;28;20026;-35
2024/02/20 11:33:31;;;;;;;8.50;3.83;;;10.70;99.90;;;;;;5041237;28;20028;-35
2024/02/20 11:35:58;;;;;;;9.93;4.32;;;10.70;99.90;;;;;;5041508;28;20013;-33
2024/02/20 11:38:23;;;;;;;9.70;4.75;;;10.80;99.90;;;;;;5041139;28;20032;-40
2024/02/20 11:40:52;;;;;;;11.63;4.53;;;10.80;99.90;;;;;;5041423;28;20456;-38
2024/02/20 11:43:19;;;;;;;8.98;4.10;;;10.90;99.90;;;;;;5041258;28;20475;-36
2024/02/20 11:45:44;;;;;;;12.10;4.82;;;10.90;99.90;;;;;;5041097;28;20036;-37
2024/02/20 11:48:11;;;;;;;12.30;5.63;;;10.90;99.90;;;;;;5041910;28;20029;-37
2024/02/20 11:50:40;;;;;;;9.50;4.22;;;10.90;99.90;;;;;;5041390;28;20104;-34
2024/02/20 11:53:11;;;;;;;10.98;4.65;;;11.00;99.90;;;;;;5039632;28;20569;-33
2024/02/20 11:55:49;;;;;;;12.25;4.32;;;11.00;99.90;;;;;;5041419;28;20109;-35
2024/02/20 11:58:16;;;;;;;11.93;4.40;;;11.00;99.90;;;;;;5040004;28;20060;-37
2024/02/20 12:00:43;;;;;;;9.70;4.15;;;11.00;99.90;;;;;;5041476;28;20032;-34
2024/02/20 12:03:09;;;;;;;11.10;4.22;;;11.10;99.90;;;;;;5040870;28;20039;-36
2024/02/20 12:05:37;;;;;;;12.88;5.03;;;11.10;99.90;;;;;;5040659;28;20094;-35
2024/02/20 12:08:17;;;;;;;11.65;5.15;;;11.20;99.90;;;;;;5039891;28;20029;-38
2024/02/20 12:10:46;;;;;;;11.10;4.82;;;11.20;99.90;;;;;;5021433;28;20025;-33
2024/02/20 12:13:23;;;;;;;13.90;4.95;;;11.20;99.90;;;;;;5036869;28;20037;-30
2024/02/20 12:15:49;;;;;;;11.55;4.20;;;11.30;99.90;;;;;;5020870;28;20017;-37
2024/02/20 12:18:31;;;;;;;13.65;4.95;;;11.30;99.90;;;;;;5036118;28;20021;-36
2024/02/20 12:21:08;;;;;;;9.05;4.03;;;11.40;99.90;;;;;;5019669;28;20109;-36
2024/02/20 12:23:36;;;;;;;9.40;4.70;;;11.40;99.90;;;;;;5037308;28;20110;-38
2024/02/20 12:26:06;;;;;;;13.30;4.90;;;11.50;99.90;;;;;;5041269;28;20044;-37
2024/02/20 12:28:35;;;;;;;14.20;4.28;;;11.50;99.90;;;;;;5039358;28;20890;-39
2024/02/20 12:31:01;;;;;;;11.27;4.30;;;11.50;99.90;;;;;;5040091;28;20032;-39
2024/02/20 12:33:27;;;;;;;15.63;4.95;;;11.50;99.90;;;;;;5040341;28;20108;-39
2024/02/20 12:35:57;;;;;;;14.55;5.13;;;11.60;99.90;;;;;;5040224;28;20029;-35
2024/02/20 12:38:25;;;;;;;11.57;3.80;;;11.60;99.90;;;;;;5039649;28;20025;-37
2024/02/20 12:40:54;;;;;;;9.95;3.97;;;11.70;99.90;;;;;;5039610;28;20121;-38
2024/02/20 12:43:20;;;;;;;12.00;4.65;;;11.70;99.90;;;;;;5039237;28;20032;-37
2024/02/20 12:45:45;;;;;;;8.52;3.95;;;11.80;99.90;;;;;;5040113;28;20041;-37
2024/02/20 12:48:14;;;;;;;9.98;4.10;;;11.80;99.90;;;;;;5039551;28;20021;-38
2024/02/20 12:50:40;;;;;;;11.15;4.05;;;11.80;99.90;;;;;;5040462;28;20071;-34